ADDS METAR Data INFO
IDs: Format: Raw Decoded Include TAF

Data at: 1808 UTC 18 Aug 2018

KWVI 181753Z AUTO 20007KT 10SM CLR 20/14 A3008 RMK AO2 SLP186 T02000139 10200 20122 53003

KSNS 181753Z 32005KT 4SM HZ CLR 21/13 A3007 RMK AO2 SLP192 T02110133 10217 20133 50003

KMRY 181754Z 34005KT 8SM BKN004 15/12 A3010 RMK AO2 SLP203 T01500122 10156 20122 53008

KSJC 181753Z 00000KT 10SM FEW001 FEW010 SCT030 24/13 A3005 RMK AO2 SLP176 FU FEW001 FU FEW010 FU SCT030 T02440133 10250 20144 58001

KSFO 181756Z 32009KT 10SM FEW009 19/12 A3006 RMK AO2 SLP180 T01890117 10194 20111 52003

KHAF 181800Z AUTO 17006KT 8SM BKN004 14/12 A3010 RMK AO2